Nearby METAR Reports

 

KARR - Chicago/Aurora, Illinois, USA
Distance from station: S 8mi, 13km
Updated: 04/24/2019 12:52pm
Partly cloudy
Partly cloudy
 Wind from SE
Wind: SE 10 mph , 17 km/h
Temperature: 61°F , 16°C
Dew Point: 43°F , 6°C
Humidity: 52%
Barometer: 1014.6 hPa
Clouds: Partly cloudy
Visibility: 10 miles , 16 km
Cloud details: Partly cloudy 11000 ft
2019/04/24 17:52 KARR 241752Z 13009KT 10SM SCT110 16/06 A2996 RMK AO2 SLP148 T01560056 10156 20056 58019
KDKB - De Kalb, Illinois, USA
Distance from station: WNW 12mi, 19km
Updated: 04/24/2019 1:15pm
Overcast
Overcast
 Wind from SE
Wind: SE 8 mph , 13 km/h
Temperature: 59°F , 15°C
Dew Point: 43°F , 6°C
Humidity: 55%
Barometer: 1014.9 hPa
Clouds: Overcast
Visibility: 10 miles , 16 km
Cloud details: Partly cloudy 9000 ft
Overcast 12000 ft
2019/04/24 18:15 KDKB 241815Z AUTO 14007KT 10SM SCT090 OVC120 15/06 A2997 RMK AO2 T01450059
 
KDPA - Chicago/Dupage, Illinois, USA
Distance from station: E 12mi, 19km
Updated: 04/24/2019 12:52pm
Few Clouds
Few Clouds
 Wind from SE
Wind: SE 9 mph , 15 km/h
Temperature: 61°F , 16°C
Dew Point: 39°F , 4°C
Humidity: 45%
Barometer: 1014.2 hPa
Clouds: Few Clouds
Visibility: 10 miles , 16 km
Cloud details: Few Clouds 11000 ft
2019/04/24 17:52 KDPA 241752Z 14008KT 10SM FEW110 16/04 A2995 RMK AO2 SLP143 T01610039 10161 20056 58022
KLOT - Romeoville/Chi, Illinois, USA
Distance from station: SE 28mi, 45km
Updated: 04/24/2019 1:15pm
Overcast
Overcast
 Wind from SSE
Wind: SSE 8 mph , 13 km/h
Temperature: 63°F , 17°C
Dew Point: 39°F , 4°C
Humidity: 42%
Barometer: 1014.6 hPa
Clouds: Overcast
Visibility: 10 miles , 16 km
Cloud details: Overcast 11000 ft
2019/04/24 18:15 KLOT 241815Z AUTO 15007KT 10SM OVC110 17/04 A2996 RMK AO2 T01650035
 
KORD - Chicago O'hare, Illinois, USA
Distance from station: ENE 29mi, 46km
Updated: 04/24/2019 12:51pm
Overcast
Overcast
 Wind from varies
Wind: varies 6 mph , 9 km/h
Temperature: 61°F , 16°C
Dew Point: 36°F , 2°C
Humidity: 39%
Barometer: 1014.2 hPa
Clouds: Overcast
Visibility: 10 miles , 16 km
Cloud details: Few Clouds 15000 ft
Mostly cloudy 18000 ft
Overcast 25000 ft
2019/04/24 17:51 KORD 241751Z VRB05KT 10SM FEW150 BKN180 OVC250 16/02 A2995 RMK AO2 SLP141 VIRGA SW-W T01560017 10161 20067 58024
KJOT - Joliet, Illinois, USA
Distance from station: SSE 30mi, 48km
Updated: 04/24/2019 1:15pm
Mostly cloudy
Mostly cloudy
 Wind from SE
Wind: SE 9 mph , 15 km/h
Temperature: 61°F , 16°C
Dew Point: 36°F , 2°C
Humidity: 39%
Barometer: 1014.9 hPa
Clouds: Mostly cloudy
Visibility: 10 miles , 16 km
Cloud details: Mostly cloudy 12000 ft
2019/04/24 18:15 KJOT 241815Z AUTO 14008KT 10SM BKN120 16/02 A2997 RMK AO2 T01600023
 
KRPJ - Rochelle/Koritz, Illinois, USA
Distance from station: W 31mi, 50km
Updated: 04/24/2019 1:15pm
Overcast
Overcast
 Wind from SSE
Wind: SSE 9 mph , 15 km/h
Temperature: 57°F , 14°C
Dew Point: 39°F , 4°C
Humidity: 51%
Barometer: 1014.9 hPa
Clouds: Overcast
Visibility: 10 miles , 16 km
Cloud details: Overcast 10000 ft
2019/04/24 18:15 KRPJ 241815Z AUTO 16008KT 10SM OVC100 14/04 A2997 RMK AO2 T01350042
KC09 - Morris-Washburn, Illinois, USA
Distance from station: S 31mi, 51km
Updated: 04/24/2019 1:15pm

 Wind from SE
Wind: SE 10 mph , 17 km/h
Temperature: 61°F , 16°C
Dew Point: 36°F , 2°C
Humidity: 39%
Barometer: 1014.2 hPa
Visibility: 10 miles , 16 km
2019/04/24 18:15 KC09 241815Z AUTO 14009KT 10SM 16/02 A2995 RMK AO2 T01570015
 
KPWK - Palwaukee, Illinois, USA
Distance from station: ENE 34mi, 54km
Updated: 04/24/2019 12:52pm
Clear
Clear
 Wind from ESE
Wind: ESE 7 mph , 11 km/h
Temperature: 61°F , 16°C
Dew Point: 34°F , 1°C
Humidity: 36%
Barometer: 1014.9 hPa
Clouds: Clear
Visibility: 10 miles , 16 km
2019/04/24 17:52 KPWK 241752Z 11006KT 10SM CLR 16/01 A2997 RMK AO2 SLP149 T01610011 10167 20067 58024
KMDW - Chicago, Illinois, USA
Distance from station: E 38mi, 62km
Updated: 04/24/2019 12:53pm
Mostly cloudy
Mostly cloudy
 Wind from ESE
Wind: ESE 10 mph , 17 km/h
Temperature: 61°F , 16°C
Dew Point: 39°F , 4°C
Humidity: 45%
Barometer: 1014.6 hPa
Clouds: Mostly cloudy
Visibility: 10 miles , 16 km
Cloud details: Mostly cloudy 15000 ft
Mostly cloudy 25000 ft
2019/04/24 17:53 KMDW 241753Z 12009KT 10SM BKN150 BKN250 16/04 A2996 RMK AO2 SLP145 T01560039 10161 20072 58023
 
KRFD - Rockford, Illinois, USA
Distance from station: NW 39mi, 62km
Updated: 04/24/2019 12:54pm
Mostly cloudy
Mostly cloudy
 Wind from S
Wind: S 9 mph , 15 km/h
Temperature: 57°F , 14°C
Dew Point: 39°F , 4°C
Humidity: 51%
Barometer: 1014.9 hPa
Clouds: Mostly cloudy
Visibility: 10 miles , 16 km
Cloud details: Partly cloudy 15000 ft
Mostly cloudy 25000 ft
2019/04/24 17:54 KRFD 241754Z 19008KT 10SM SCT150 BKN250 14/04 A2997 RMK SLP152 T01390039 10144 20067 58019
KUGN - Waukegan, Illinois, USA
Distance from station: NE 48mi, 78km
Updated: 04/24/2019 12:55pm
Clear
Clear
 Wind from SSE
Wind: SSE 12 mph , 19 km/h
Temperature: 55°F , 13°C
Dew Point: 30°F , -1°C
Humidity: 38%
Barometer: 1014.9 hPa
Clouds: Clear
Visibility: 10 miles , 16 km
2019/04/24 17:55 KUGN 241755Z 15010KT 10SM CLR 13/M01 A2997 RMK AO2 SLP151 T01331006 10133 20039 58022 $